Terminal Aerodrome Forecast
Issued by NWS Norman, OK

Home | Current Version | Previous Version | Text Only | Print | Product List | Glossary On
Versions: 1 2 3 4 5 6 7 8 9 10 11 12 13 14 15 16 17 18 19 20 21 22 23 24 25
000
FTUS44 KOUN 020520
TAFOKC
TAF
KOKC 020520Z 0206/0306 19010KT P6SM FEW100 SCT250
     FM021400 23012G18KT P6SM SCT050 BKN250
     FM022100 18010KT P6SM VCTS SCT050CB BKN250
      TEMPO 0300/0304 4SM -TSRA BKN050CB=

USA.gov is the U.S. government's official web portal to all federal, state and local government web resources and services.